Maersk Regensburg — VREN6 — position and weather

sailwx.info

Track history (hours):
 
Tides and Currents Weather Stations Pressure Air Temp Water Temp Dewpoint Dewpoint Depression Visibility Wind Speed Wind Dir Waves Ship Positions

Maersk Regensburg

Last reported at 2018-Feb-06 23:41 UTC. Time now 2018-Feb-20 11:40 UTC.
Position N 35°57' W 005°36'.
Warning: this ship's position is 13 days out of date.

Length 148 m; draft 8.2 m.

Type: Cargo ship. MMSI: 477143400.

Date/timePositionNaut miles runAvg speedWind from/ knotsBaromVisibWave heightAir tempDewpointWater temp
2018-Feb-06 23:41N 35°57' W 005°36'1 7.6
2018-Feb-06 23:30N 35°58' W 005°34'4 7.4
2018-Feb-06 23:00N 35°59' W 005°30'4 7.2
2018-Feb-06 22:30N 36°00' W 005°26'4 8.7
2018-Feb-06 22:00N 36°04' W 005°23'5 8.1
2018-Feb-06 21:23N 36°09' W 005°26'0 0.0
2018-Feb-06 06:41N 36°09' W 005°26'0 1.6
2018-Feb-06 06:29N 36°09' W 005°26'1 0.0
2018-Feb-04 17:03N 36°10' W 005°26'5 3.4
2018-Feb-04 15:30N 36°05' W 005°23'5 9.7
2018-Feb-04 15:00N 36°03' W 005°17'4 8.8
2018-Feb-04 14:31N 36°03' W 005°12'8 0.5
2018-Feb-03 23:31N 35°57' W 005°07'011.7
2018-Feb-03 23:30N 35°57' W 005°07'611.6
2018-Feb-03 23:00N 35°57' W 005°14'613.0
2018-Feb-03 22:30N 35°58' W 005°22'8 0.9
2018-Feb-03 13:43N 35°57' W 005°33'210.4
2018-Feb-03 13:30N 35°58' W 005°30'510.5
2018-Feb-03 13:01N 35°60' W 005°24'5 9.7
2018-Feb-03 12:30N 36°01' W 005°18'7 0.4
2018-Feb-02 18:39N 35°57' W 005°11'214.6
2018-Feb-02 18:30N 35°57' W 005°13'714.6
2018-Feb-02 18:01N 35°58' W 005°22'  
2018-Jan-30 07:17N 29°01' W 015°13'3 9.3
2018-Jan-30 07:00N 28°59' W 015°15'5 9.3
2018-Jan-30 06:30N 28°56' W 015°19'5 9.1
2018-Jan-30 05:59N 28°53' W 015°24'5 9.4
2018-Jan-30 05:30N 28°51' W 015°28'4 9.2
2018-Jan-30 05:00N 28°48' W 015°32'5 8.9
2018-Jan-30 04:29N 28°45' W 015°36'4 9.1
2018-Jan-30 04:00N 28°43' W 015°40'5 9.1
2018-Jan-30 03:30N 28°40' W 015°44'4 8.9
2018-Jan-30 03:00N 28°38' W 015°49'5 9.2
2018-Jan-30 02:30N 28°35' W 015°53'5 9.2
2018-Jan-30 02:01N 28°33' W 015°58'5 9.3
2018-Jan-30 01:30N 28°31' W 016°03'5 9.5
2018-Jan-30 01:00N 28°29' W 016°08'5 9.7
2018-Jan-30 00:31N 28°28' W 016°13'2 3.3
2018-Jan-29 23:58N 28°29' W 016°13'0 0.0
2018-Jan-29 23:28N 28°29' W 016°13'0 0.0
2018-Jan-29 22:58N 28°29' W 016°13'0 0.0
2018-Jan-29 22:28N 28°29' W 016°13'0 0.0
2018-Jan-29 21:58N 28°29' W 016°13'0 0.0
2018-Jan-29 21:28N 28°29' W 016°13'0 0.0
2018-Jan-29 20:58N 28°29' W 016°13'0 0.0
2018-Jan-29 20:28N 28°29' W 016°13'0 0.0
2018-Jan-29 19:58N 28°29' W 016°13'0 0.0
2018-Jan-29 19:28N 28°29' W 016°13'0 0.0
2018-Jan-29 18:58N 28°29' W 016°13'0 0.0
2018-Jan-29 18:28N 28°29' W 016°13'0 0.0
2018-Jan-29 17:58N 28°29' W 016°13'0 0.0
2018-Jan-29 17:28N 28°29' W 016°13'0 0.0
2018-Jan-29 16:58N 28°29' W 016°13'0 0.0
2018-Jan-29 16:28N 28°29' W 016°13'0 0.0
2018-Jan-29 15:58N 28°29' W 016°13'0 0.0
2018-Jan-29 15:28N 28°29' W 016°13'0 0.0
2018-Jan-29 14:58N 28°29' W 016°13'0 0.0
2018-Jan-29 14:28N 28°29' W 016°13'0 0.0
2018-Jan-29 13:58N 28°29' W 016°13'0 0.0
2018-Jan-29 13:28N 28°29' W 016°13'0 0.0
2018-Jan-29 12:58N 28°29' W 016°13'0 0.0
2018-Jan-29 12:28N 28°29' W 016°14'0 0.0
2018-Jan-29 11:58N 28°29' W 016°13'0 0.0
2018-Jan-29 11:25N 28°29' W 016°13'0 0.0
2018-Jan-29 10:58N 28°29' W 016°13'0 0.0
2018-Jan-29 10:28N 28°29' W 016°13'0 0.0
2018-Jan-29 09:58N 28°29' W 016°13'0 0.0
2018-Jan-29 09:28N 28°29' W 016°13'0 0.0
2018-Jan-29 08:58N 28°29' W 016°13'0 0.0
2018-Jan-29 08:28N 28°29' W 016°13'0 0.0
2018-Jan-29 07:58N 28°29' W 016°13'0 0.0
2018-Jan-29 07:28N 28°29' W 016°13'1 1.3
2018-Jan-29 07:00N 28°29' W 016°14'2 4.9
2018-Jan-29 06:30N 28°27' W 016°12'2 4.8
2018-Jan-29 06:00N 28°26' W 016°09'3 6.9
2018-Jan-29 05:30N 28°25' W 016°06'3 7.0
2018-Jan-29 05:00N 28°24' W 016°02'4 7.3
2018-Jan-29 04:30N 28°21' W 015°59'3 6.1
2018-Jan-29 04:00N 28°19' W 015°56'4 7.1
2018-Jan-29 03:30N 28°16' W 015°59'4 7.3
2018-Jan-29 03:00N 28°13' W 016°01'4 7.3
2018-Jan-29 02:30N 28°11' W 016°04'4 7.3
2018-Jan-29 01:55N 28°08' W 016°07'  
Track history (hours):
 
Tides and Currents Weather Stations Pressure Air Temp Water Temp Dewpoint Dewpoint Depression Visibility Wind Speed Wind Dir Waves Ship Positions

Maersk Regensburg

Last reported at 2018-Feb-06 23:41 UTC. Time now 2018-Feb-20 11:40 UTC.
Position N 35°57' W 005°36'.
Warning: this ship's position is 13 days out of date.

Length 148 m; draft 8.2 m.

Type: Cargo ship. MMSI: 477143400.

Date/timePositionNaut miles runAvg speedWind from/ knotsBaromVisibWave heightAir tempDewpointWater temp
2018-Feb-06 23:41N 35°57' W 005°36'1 7.6
2018-Feb-06 23:30N 35°58' W 005°34'4 7.4
2018-Feb-06 23:00N 35°59' W 005°30'4 7.2
2018-Feb-06 22:30N 36°00' W 005°26'4 8.7
2018-Feb-06 22:00N 36°04' W 005°23'5 8.1
2018-Feb-06 21:23N 36°09' W 005°26'0 0.0
2018-Feb-06 06:41N 36°09' W 005°26'0 1.6
2018-Feb-06 06:29N 36°09' W 005°26'1 0.0
2018-Feb-04 17:03N 36°10' W 005°26'5 3.4
2018-Feb-04 15:30N 36°05' W 005°23'5 9.7
2018-Feb-04 15:00N 36°03' W 005°17'4 8.8
2018-Feb-04 14:31N 36°03' W 005°12'8 0.5
2018-Feb-03 23:31N 35°57' W 005°07'011.7
2018-Feb-03 23:30N 35°57' W 005°07'611.6
2018-Feb-03 23:00N 35°57' W 005°14'613.0
2018-Feb-03 22:30N 35°58' W 005°22'8 0.9
2018-Feb-03 13:43N 35°57' W 005°33'210.4
2018-Feb-03 13:30N 35°58' W 005°30'510.5
2018-Feb-03 13:01N 35°60' W 005°24'5 9.7
2018-Feb-03 12:30N 36°01' W 005°18'7 0.4
2018-Feb-02 18:39N 35°57' W 005°11'214.6
2018-Feb-02 18:30N 35°57' W 005°13'714.6
2018-Feb-02 18:01N 35°58' W 005°22'  
2018-Jan-30 07:17N 29°01' W 015°13'3 9.3
2018-Jan-30 07:00N 28°59' W 015°15'5 9.3
2018-Jan-30 06:30N 28°56' W 015°19'5 9.1
2018-Jan-30 05:59N 28°53' W 015°24'5 9.4
2018-Jan-30 05:30N 28°51' W 015°28'4 9.2
2018-Jan-30 05:00N 28°48' W 015°32'5 8.9
2018-Jan-30 04:29N 28°45' W 015°36'4 9.1
2018-Jan-30 04:00N 28°43' W 015°40'5 9.1
2018-Jan-30 03:30N 28°40' W 015°44'4 8.9
2018-Jan-30 03:00N 28°38' W 015°49'5 9.2
2018-Jan-30 02:30N 28°35' W 015°53'5 9.2
2018-Jan-30 02:01N 28°33' W 015°58'5 9.3
2018-Jan-30 01:30N 28°31' W 016°03'5 9.5
2018-Jan-30 01:00N 28°29' W 016°08'5 9.7
2018-Jan-30 00:31N 28°28' W 016°13'2 3.3
2018-Jan-29 23:58N 28°29' W 016°13'0 0.0
2018-Jan-29 23:28N 28°29' W 016°13'0 0.0
2018-Jan-29 22:58N 28°29' W 016°13'0 0.0
2018-Jan-29 22:28N 28°29' W 016°13'0 0.0
2018-Jan-29 21:58N 28°29' W 016°13'0 0.0
2018-Jan-29 21:28N 28°29' W 016°13'0 0.0
2018-Jan-29 20:58N 28°29' W 016°13'0 0.0
2018-Jan-29 20:28N 28°29' W 016°13'0 0.0
2018-Jan-29 19:58N 28°29' W 016°13'0 0.0
2018-Jan-29 19:28N 28°29' W 016°13'0 0.0
2018-Jan-29 18:58N 28°29' W 016°13'0 0.0
2018-Jan-29 18:28N 28°29' W 016°13'0 0.0
2018-Jan-29 17:58N 28°29' W 016°13'0 0.0
2018-Jan-29 17:28N 28°29' W 016°13'0 0.0
2018-Jan-29 16:58N 28°29' W 016°13'0 0.0
2018-Jan-29 16:28N 28°29' W 016°13'0 0.0
2018-Jan-29 15:58N 28°29' W 016°13'0 0.0
2018-Jan-29 15:28N 28°29' W 016°13'0 0.0
2018-Jan-29 14:58N 28°29' W 016°13'0 0.0
2018-Jan-29 14:28N 28°29' W 016°13'0 0.0
2018-Jan-29 13:58N 28°29' W 016°13'0 0.0
2018-Jan-29 13:28N 28°29' W 016°13'0 0.0
2018-Jan-29 12:58N 28°29' W 016°13'0 0.0
2018-Jan-29 12:28N 28°29' W 016°14'0 0.0
2018-Jan-29 11:58N 28°29' W 016°13'0 0.0
2018-Jan-29 11:25N 28°29' W 016°13'0 0.0
2018-Jan-29 10:58N 28°29' W 016°13'0 0.0
2018-Jan-29 10:28N 28°29' W 016°13'0 0.0
2018-Jan-29 09:58N 28°29' W 016°13'0 0.0
2018-Jan-29 09:28N 28°29' W 016°13'0 0.0
2018-Jan-29 08:58N 28°29' W 016°13'0 0.0
2018-Jan-29 08:28N 28°29' W 016°13'0 0.0
2018-Jan-29 07:58N 28°29' W 016°13'0 0.0
2018-Jan-29 07:28N 28°29' W 016°13'1 1.3
2018-Jan-29 07:00N 28°29' W 016°14'2 4.9
2018-Jan-29 06:30N 28°27' W 016°12'2 4.8
2018-Jan-29 06:00N 28°26' W 016°09'3 6.9
2018-Jan-29 05:30N 28°25' W 016°06'3 7.0
2018-Jan-29 05:00N 28°24' W 016°02'4 7.3
2018-Jan-29 04:30N 28°21' W 015°59'3 6.1
2018-Jan-29 04:00N 28°19' W 015°56'4 7.1
2018-Jan-29 03:30N 28°16' W 015°59'4 7.3
2018-Jan-29 03:00N 28°13' W 016°01'4 7.3
2018-Jan-29 02:30N 28°11' W 016°04'4 7.3
2018-Jan-29 01:55N 28°08' W 016°07'  

Dump ship's entire track history